sensor_id;sensor_type;location;lat;lon;timestamp;P1;durP1;ratioP1;P2;durP2;ratioP2
64313;SDS011;50650;48.180;11.524;2023-04-26T00:01:00;9.77;;;5.90;;
64313;SDS011;50650;48.180;11.524;2023-04-26T00:03:28;9.23;;;6.32;;
64313;SDS011;50650;48.180;11.524;2023-04-26T00:05:54;9.55;;;6.15;;
64313;SDS011;50650;48.180;11.524;2023-04-26T00:08:20;10.63;;;6.47;;
64313;SDS011;50650;48.180;11.524;2023-04-26T00:10:47;10.93;;;6.05;;
64313;SDS011;50650;48.180;11.524;2023-04-26T00:13:14;9.18;;;6.10;;
64313;SDS011;50650;48.180;11.524;2023-04-26T00:15:41;10.40;;;6.07;;
64313;SDS011;50650;48.180;11.524;2023-04-26T00:18:07;10.02;;;6.70;;
64313;SDS011;50650;48.180;11.524;2023-04-26T00:20:34;9.45;;;6.18;;
64313;SDS011;50650;48.180;11.524;2023-04-26T00:23:00;10.43;;;6.50;;
64313;SDS011;50650;48.180;11.524;2023-04-26T00:25:27;10.10;;;5.85;;
64313;SDS011;50650;48.180;11.524;2023-04-26T00:27:53;9.15;;;5.30;;
64313;SDS011;50650;48.180;11.524;2023-04-26T00:30:21;11.68;;;6.47;;
64313;SDS011;50650;48.180;11.524;2023-04-26T00:32:47;10.48;;;6.05;;
64313;SDS011;50650;48.180;11.524;2023-04-26T00:35:14;9.98;;;5.97;;
64313;SDS011;50650;48.180;11.524;2023-04-26T00:37:40;8.93;;;5.85;;
64313;SDS011;50650;48.180;11.524;2023-04-26T00:40:07;11.25;;;6.35;;
64313;SDS011;50650;48.180;11.524;2023-04-26T00:42:34;8.65;;;5.53;;
64313;SDS011;50650;48.180;11.524;2023-04-26T00:45:00;11.10;;;5.97;;
64313;SDS011;50650;48.180;11.524;2023-04-26T00:47:29;11.80;;;6.03;;
64313;SDS011;50650;48.180;11.524;2023-04-26T00:49:55;8.88;;;6.28;;
64313;SDS011;50650;48.180;11.524;2023-04-26T00:52:22;9.27;;;6.20;;
64313;SDS011;50650;48.180;11.524;2023-04-26T00:54:49;9.25;;;5.50;;
64313;SDS011;50650;48.180;11.524;2023-04-26T00:57:15;8.93;;;6.18;;
64313;SDS011;50650;48.180;11.524;2023-04-26T00:59:42;8.90;;;6.00;;
64313;SDS011;50650;48.180;11.524;2023-04-26T01:02:08;11.82;;;6.93;;
64313;SDS011;50650;48.180;11.524;2023-04-26T01:04:36;9.88;;;5.95;;
64313;SDS011;50650;48.180;11.524;2023-04-26T01:07:04;12.73;;;6.50;;
64313;SDS011;50650;48.180;11.524;2023-04-26T01:09:30;9.95;;;6.15;;
64313;SDS011;50650;48.180;11.524;2023-04-26T01:11:57;10.15;;;6.47;;
64313;SDS011;50650;48.180;11.524;2023-04-26T01:14:24;10.13;;;6.18;;
64313;SDS011;50650;48.180;11.524;2023-04-26T01:16:51;8.82;;;5.32;;
64313;SDS011;50650;48.180;11.524;2023-04-26T01:19:17;10.73;;;5.97;;
64313;SDS011;50650;48.180;11.524;2023-04-26T01:21:47;9.88;;;6.80;;
64313;SDS011;50650;48.180;11.524;2023-04-26T01:24:14;9.93;;;6.22;;
64313;SDS011;50650;48.180;11.524;2023-04-26T01:26:41;11.95;;;5.90;;
64313;SDS011;50650;48.180;11.524;2023-04-26T01:29:14;8.50;;;5.78;;
64313;SDS011;50650;48.180;11.524;2023-04-26T01:31:41;8.75;;;5.03;;
64313;SDS011;50650;48.180;11.524;2023-04-26T01:34:08;8.07;;;4.90;;
64313;SDS011;50650;48.180;11.524;2023-04-26T01:36:35;9.98;;;4.75;;
64313;SDS011;50650;48.180;11.524;2023-04-26T01:39:01;8.02;;;5.15;;
64313;SDS011;50650;48.180;11.524;2023-04-26T01:41:29;8.82;;;4.95;;
64313;SDS011;50650;48.180;11.524;2023-04-26T01:43:56;6.78;;;5.05;;
64313;SDS011;50650;48.180;11.524;2023-04-26T01:46:23;8.68;;;5.45;;
64313;SDS011;50650;48.180;11.524;2023-04-26T01:48:49;9.48;;;5.32;;
64313;SDS011;50650;48.180;11.524;2023-04-26T01:51:16;9.90;;;5.40;;
64313;SDS011;50650;48.180;11.524;2023-04-26T01:53:42;7.47;;;5.07;;
64313;SDS011;50650;48.180;11.524;2023-04-26T01:56:09;8.23;;;4.85;;
64313;SDS011;50650;48.180;11.524;2023-04-26T01:58:36;9.40;;;5.25;;
64313;SDS011;50650;48.180;11.524;2023-04-26T02:01:03;11.07;;;5.55;;
64313;SDS011;50650;48.180;11.524;2023-04-26T02:03:31;10.73;;;5.30;;
64313;SDS011;50650;48.180;11.524;2023-04-26T02:05:58;8.82;;;5.32;;
64313;SDS011;50650;48.180;11.524;2023-04-26T02:08:24;7.65;;;5.35;;
64313;SDS011;50650;48.180;11.524;2023-04-26T02:10:51;7.88;;;5.50;;
64313;SDS011;50650;48.180;11.524;2023-04-26T02:13:17;8.70;;;5.18;;
64313;SDS011;50650;48.180;11.524;2023-04-26T02:15:46;9.32;;;5.43;;
64313;SDS011;50650;48.180;11.524;2023-04-26T02:18:13;7.38;;;4.55;;
64313;SDS011;50650;48.180;11.524;2023-04-26T02:20:39;8.07;;;4.13;;
64313;SDS011;50650;48.180;11.524;2023-04-26T02:23:07;8.10;;;4.65;;
64313;SDS011;50650;48.180;11.524;2023-04-26T02:25:33;7.03;;;4.05;;
64313;SDS011;50650;48.180;11.524;2023-04-26T02:28:00;8.45;;;4.53;;
64313;SDS011;50650;48.180;11.524;2023-04-26T02:30:26;8.15;;;4.35;;
64313;SDS011;50650;48.180;11.524;2023-04-26T02:32:54;7.65;;;4.32;;
64313;SDS011;50650;48.180;11.524;2023-04-26T02:35:21;7.88;;;4.80;;
64313;SDS011;50650;48.180;11.524;2023-04-26T02:37:48;6.07;;;4.30;;
64313;SDS011;50650;48.180;11.524;2023-04-26T02:40:16;11.45;;;4.22;;
64313;SDS011;50650;48.180;11.524;2023-04-26T02:42:43;5.15;;;3.72;;
64313;SDS011;50650;48.180;11.524;2023-04-26T02:45:09;7.22;;;3.97;;
64313;SDS011;50650;48.180;11.524;2023-04-26T02:47:36;7.97;;;4.30;;
64313;SDS011;50650;48.180;11.524;2023-04-26T02:50:05;7.15;;;4.05;;
64313;SDS011;50650;48.180;11.524;2023-04-26T02:52:32;4.40;;;3.33;;
64313;SDS011;50650;48.180;11.524;2023-04-26T02:54:59;6.82;;;4.00;;
64313;SDS011;50650;48.180;11.524;2023-04-26T02:57:26;7.93;;;4.20;;
64313;SDS011;50650;48.180;11.524;2023-04-26T02:59:52;7.10;;;3.67;;
64313;SDS011;50650;48.180;11.524;2023-04-26T03:02:19;7.47;;;4.15;;
64313;SDS011;50650;48.180;11.524;2023-04-26T03:04:46;6.15;;;4.00;;
64313;SDS011;50650;48.180;11.524;2023-04-26T03:07:14;6.75;;;4.07;;
64313;SDS011;50650;48.180;11.524;2023-04-26T03:09:40;5.53;;;3.72;;
64313;SDS011;50650;48.180;11.524;2023-04-26T03:12:07;6.80;;;4.50;;
64313;SDS011;50650;48.180;11.524;2023-04-26T03:14:34;7.05;;;4.05;;
64313;SDS011;50650;48.180;11.524;2023-04-26T03:17:00;8.70;;;4.25;;
64313;SDS011;50650;48.180;11.524;2023-04-26T03:19:27;7.65;;;4.63;;
64313;SDS011;50650;48.180;11.524;2023-04-26T03:21:54;8.80;;;4.40;;
64313;SDS011;50650;48.180;11.524;2023-04-26T03:24:22;6.50;;;4.25;;
64313;SDS011;50650;48.180;11.524;2023-04-26T03:26:48;8.07;;;4.53;;
64313;SDS011;50650;48.180;11.524;2023-04-26T03:29:15;7.38;;;4.45;;
64313;SDS011;50650;48.180;11.524;2023-04-26T03:31:41;7.47;;;4.65;;
64313;SDS011;50650;48.180;11.524;2023-04-26T03:34:08;5.97;;;4.13;;
64313;SDS011;50650;48.180;11.524;2023-04-26T03:36:34;8.88;;;4.68;;
64313;SDS011;50650;48.180;11.524;2023-04-26T03:39:01;8.40;;;4.30;;
64313;SDS011;50650;48.180;11.524;2023-04-26T03:41:30;7.03;;;4.38;;
64313;SDS011;50650;48.180;11.524;2023-04-26T03:43:57;7.15;;;4.28;;
64313;SDS011;50650;48.180;11.524;2023-04-26T03:46:23;9.13;;;4.50;;
64313;SDS011;50650;48.180;11.524;2023-04-26T03:48:50;7.63;;;4.72;;
64313;SDS011;50650;48.180;11.524;2023-04-26T03:51:16;8.93;;;4.25;;
64313;SDS011;50650;48.180;11.524;2023-04-26T03:53:43;6.70;;;3.75;;
64313;SDS011;50650;48.180;11.524;2023-04-26T03:56:10;8.25;;;4.30;;
64313;SDS011;50650;48.180;11.524;2023-04-26T03:58:38;5.53;;;4.22;;
64313;SDS011;50650;48.180;11.524;2023-04-26T04:01:06;8.77;;;4.80;;
64313;SDS011;50650;48.180;11.524;2023-04-26T04:03:32;8.20;;;4.25;;
64313;SDS011;50650;48.180;11.524;2023-04-26T04:05:59;6.35;;;4.47;;
64313;SDS011;50650;48.180;11.524;2023-04-26T04:08:25;7.32;;;4.70;;
64313;SDS011;50650;48.180;11.524;2023-04-26T04:10:52;6.20;;;4.30;;
64313;SDS011;50650;48.180;11.524;2023-04-26T04:13:18;7.95;;;4.50;;
64313;SDS011;50650;48.180;11.524;2023-04-26T04:15:46;7.60;;;4.97;;
64313;SDS011;50650;48.180;11.524;2023-04-26T04:18:13;7.18;;;4.75;;
64313;SDS011;50650;48.180;11.524;2023-04-26T04:20:39;8.73;;;5.05;;
64313;SDS011;50650;48.180;11.524;2023-04-26T04:23:06;7.65;;;4.57;;
64313;SDS011;50650;48.180;11.524;2023-04-26T04:25:32;11.45;;;5.50;;
64313;SDS011;50650;48.180;11.524;2023-04-26T04:27:59;9.10;;;4.57;;
64313;SDS011;50650;48.180;11.524;2023-04-26T04:30:26;8.40;;;4.78;;
64313;SDS011;50650;48.180;11.524;2023-04-26T04:32:54;7.45;;;4.70;;
64313;SDS011;50650;48.180;11.524;2023-04-26T04:35:23;8.48;;;4.88;;
64313;SDS011;50650;48.180;11.524;2023-04-26T04:37:52;7.93;;;4.72;;
64313;SDS011;50650;48.180;11.524;2023-04-26T04:40:20;7.85;;;5.20;;
64313;SDS011;50650;48.180;11.524;2023-04-26T04:42:47;6.75;;;4.68;;
64313;SDS011;50650;48.180;11.524;2023-04-26T04:45:14;8.23;;;4.90;;
64313;SDS011;50650;48.180;11.524;2023-04-26T04:47:41;7.82;;;5.07;;
64313;SDS011;50650;48.180;11.524;2023-04-26T04:50:09;8.77;;;5.32;;
64313;SDS011;50650;48.180;11.524;2023-04-26T04:52:35;10.10;;;5.03;;
64313;SDS011;50650;48.180;11.524;2023-04-26T04:55:02;7.80;;;5.30;;
64313;SDS011;50650;48.180;11.524;2023-04-26T04:57:29;9.40;;;5.38;;
64313;SDS011;50650;48.180;11.524;2023-04-26T04:59:56;11.70;;;6.10;;
64313;SDS011;50650;48.180;11.524;2023-04-26T05:02:22;9.55;;;5.60;;
64313;SDS011;50650;48.180;11.524;2023-04-26T05:04:49;9.13;;;5.38;;
64313;SDS011;50650;48.180;11.524;2023-04-26T05:07:17;11.18;;;5.13;;
64313;SDS011;50650;48.180;11.524;2023-04-26T05:09:44;10.43;;;6.18;;
64313;SDS011;50650;48.180;11.524;2023-04-26T05:12:10;11.50;;;5.60;;
64313;SDS011;50650;48.180;11.524;2023-04-26T05:14:37;10.32;;;5.63;;
64313;SDS011;50650;48.180;11.524;2023-04-26T05:17:04;10.68;;;5.75;;
64313;SDS011;50650;48.180;11.524;2023-04-26T05:19:31;8.55;;;6.03;;
64313;SDS011;50650;48.180;11.524;2023-04-26T05:21:57;10.15;;;5.70;;
64313;SDS011;50650;48.180;11.524;2023-04-26T05:24:28;13.32;;;5.93;;
64313;SDS011;50650;48.180;11.524;2023-04-26T05:26:54;11.27;;;5.75;;
64313;SDS011;50650;48.180;11.524;2023-04-26T05:29:22;11.55;;;5.88;;
64313;SDS011;50650;48.180;11.524;2023-04-26T05:31:49;11.65;;;5.78;;
64313;SDS011;50650;48.180;11.524;2023-04-26T05:34:15;13.93;;;5.97;;
64313;SDS011;50650;48.180;11.524;2023-04-26T05:36:41;9.45;;;5.88;;
64313;SDS011;50650;48.180;11.524;2023-04-26T05:39:08;9.35;;;5.53;;
64313;SDS011;50650;48.180;11.524;2023-04-26T05:41:36;10.57;;;5.13;;
64313;SDS011;50650;48.180;11.524;2023-04-26T05:44:02;20.98;;;5.88;;
64313;SDS011;50650;48.180;11.524;2023-04-26T05:46:29;10.15;;;5.72;;
64313;SDS011;50650;48.180;11.524;2023-04-26T05:48:55;12.57;;;5.03;;
64313;SDS011;50650;48.180;11.524;2023-04-26T05:51:21;9.15;;;4.95;;
64313;SDS011;50650;48.180;11.524;2023-04-26T05:53:48;9.52;;;5.32;;
64313;SDS011;50650;48.180;11.524;2023-04-26T05:56:14;16.17;;;5.30;;
64313;SDS011;50650;48.180;11.524;2023-04-26T05:58:42;12.38;;;5.45;;
64313;SDS011;50650;48.180;11.524;2023-04-26T06:01:09;11.75;;;5.63;;
64313;SDS011;50650;48.180;11.524;2023-04-26T06:03:36;8.45;;;5.65;;
64313;SDS011;50650;48.180;11.524;2023-04-26T06:06:03;12.05;;;6.40;;
64313;SDS011;50650;48.180;11.524;2023-04-26T06:08:29;11.50;;;6.10;;
64313;SDS011;50650;48.180;11.524;2023-04-26T06:10:56;9.35;;;5.90;;
64313;SDS011;50650;48.180;11.524;2023-04-26T06:13:22;8.65;;;6.00;;
64313;SDS011;50650;48.180;11.524;2023-04-26T06:15:51;12.25;;;6.38;;
64313;SDS011;50650;48.180;11.524;2023-04-26T06:18:18;9.93;;;5.32;;
64313;SDS011;50650;48.180;11.524;2023-04-26T06:20:45;14.18;;;6.03;;
64313;SDS011;50650;48.180;11.524;2023-04-26T06:23:11;11.93;;;6.03;;
64313;SDS011;50650;48.180;11.524;2023-04-26T06:25:38;12.20;;;6.85;;
64313;SDS011;50650;48.180;11.524;2023-04-26T06:28:08;13.13;;;6.25;;
64313;SDS011;50650;48.180;11.524;2023-04-26T06:30:34;12.23;;;6.18;;
64313;SDS011;50650;48.180;11.524;2023-04-26T06:33:02;10.43;;;6.20;;
64313;SDS011;50650;48.180;11.524;2023-04-26T06:35:29;10.38;;;6.25;;
64313;SDS011;50650;48.180;11.524;2023-04-26T06:37:55;13.27;;;6.55;;
64313;SDS011;50650;48.180;11.524;2023-04-26T06:40:21;10.55;;;5.75;;
64313;SDS011;50650;48.180;11.524;2023-04-26T06:42:48;12.05;;;6.35;;
64313;SDS011;50650;48.180;11.524;2023-04-26T06:45:15;8.73;;;5.82;;
64313;SDS011;50650;48.180;11.524;2023-04-26T06:47:41;9.43;;;5.95;;
64313;SDS011;50650;48.180;11.524;2023-04-26T06:50:10;17.88;;;6.40;;
64313;SDS011;50650;48.180;11.524;2023-04-26T06:52:37;14.10;;;6.55;;
64313;SDS011;50650;48.180;11.524;2023-04-26T06:55:04;13.75;;;5.60;;
64313;SDS011;50650;48.180;11.524;2023-04-26T06:57:31;8.00;;;5.35;;
64313;SDS011;50650;48.180;11.524;2023-04-26T06:59:58;13.00;;;5.60;;
64313;SDS011;50650;48.180;11.524;2023-04-26T07:02:24;11.00;;;5.63;;
64313;SDS011;50650;48.180;11.524;2023-04-26T07:04:51;10.55;;;5.50;;
64313;SDS011;50650;48.180;11.524;2023-04-26T07:07:19;7.65;;;4.93;;
64313;SDS011;50650;48.180;11.524;2023-04-26T07:09:45;9.73;;;5.20;;
64313;SDS011;50650;48.180;11.524;2023-04-26T07:12:12;11.05;;;5.07;;
64313;SDS011;50650;48.180;11.524;2023-04-26T07:14:38;10.75;;;5.20;;
64313;SDS011;50650;48.180;11.524;2023-04-26T07:17:07;11.30;;;5.70;;
64313;SDS011;50650;48.180;11.524;2023-04-26T07:19:33;8.52;;;5.13;;
64313;SDS011;50650;48.180;11.524;2023-04-26T07:22:00;9.57;;;5.85;;
64313;SDS011;50650;48.180;11.524;2023-04-26T07:24:28;12.00;;;6.00;;
64313;SDS011;50650;48.180;11.524;2023-04-26T07:26:54;9.75;;;6.07;;
64313;SDS011;50650;48.180;11.524;2023-04-26T07:29:21;12.35;;;5.80;;
64313;SDS011;50650;48.180;11.524;2023-04-26T07:31:48;9.88;;;4.60;;
64313;SDS011;50650;48.180;11.524;2023-04-26T07:34:14;8.05;;;4.63;;
64313;SDS011;50650;48.180;11.524;2023-04-26T07:36:41;9.90;;;5.07;;
64313;SDS011;50650;48.180;11.524;2023-04-26T07:39:07;11.23;;;5.45;;
64313;SDS011;50650;48.180;11.524;2023-04-26T07:41:36;9.13;;;4.70;;
64313;SDS011;50650;48.180;11.524;2023-04-26T07:44:02;8.90;;;5.22;;
64313;SDS011;50650;48.180;11.524;2023-04-26T07:46:29;10.13;;;4.88;;
64313;SDS011;50650;48.180;11.524;2023-04-26T07:48:56;9.90;;;4.63;;
64313;SDS011;50650;48.180;11.524;2023-04-26T07:51:22;7.10;;;4.22;;
64313;SDS011;50650;48.180;11.524;2023-04-26T07:53:48;9.13;;;4.32;;
64313;SDS011;50650;48.180;11.524;2023-04-26T07:56:15;8.45;;;4.30;;
64313;SDS011;50650;48.180;11.524;2023-04-26T07:58:43;9.13;;;4.35;;
64313;SDS011;50650;48.180;11.524;2023-04-26T08:01:09;9.85;;;4.18;;
64313;SDS011;50650;48.180;11.524;2023-04-26T08:03:36;10.23;;;4.53;;
64313;SDS011;50650;48.180;11.524;2023-04-26T08:06:03;10.75;;;4.22;;
64313;SDS011;50650;48.180;11.524;2023-04-26T08:08:29;8.95;;;4.63;;
64313;SDS011;50650;48.180;11.524;2023-04-26T08:10:57;10.07;;;3.58;;
64313;SDS011;50650;48.180;11.524;2023-04-26T08:13:23;7.18;;;3.67;;
64313;SDS011;50650;48.180;11.524;2023-04-26T08:15:51;10.23;;;4.13;;
64313;SDS011;50650;48.180;11.524;2023-04-26T08:18:18;9.38;;;4.28;;
64313;SDS011;50650;48.180;11.524;2023-04-26T08:20:44;8.10;;;4.72;;
64313;SDS011;50650;48.180;11.524;2023-04-26T08:23:10;7.93;;;4.40;;
64313;SDS011;50650;48.180;11.524;2023-04-26T08:25:38;10.30;;;4.25;;
64313;SDS011;50650;48.180;11.524;2023-04-26T08:28:04;10.00;;;3.70;;
64313;SDS011;50650;48.180;11.524;2023-04-26T08:30:32;7.55;;;3.45;;
64313;SDS011;50650;48.180;11.524;2023-04-26T08:33:00;9.68;;;4.28;;
64313;SDS011;50650;48.180;11.524;2023-04-26T08:35:26;7.65;;;3.95;;
64313;SDS011;50650;48.180;11.524;2023-04-26T08:37:53;6.72;;;3.80;;
64313;SDS011;50650;48.180;11.524;2023-04-26T08:40:21;6.90;;;3.67;;
64313;SDS011;50650;48.180;11.524;2023-04-26T08:42:48;6.13;;;3.92;;
64313;SDS011;50650;48.180;11.524;2023-04-26T08:45:16;9.80;;;3.72;;
64313;SDS011;50650;48.180;11.524;2023-04-26T08:47:43;10.25;;;4.40;;
64313;SDS011;50650;48.180;11.524;2023-04-26T08:50:14;7.45;;;4.00;;
64313;SDS011;50650;48.180;11.524;2023-04-26T08:52:41;10.43;;;4.25;;
64313;SDS011;50650;48.180;11.524;2023-04-26T08:55:09;7.28;;;3.95;;
64313;SDS011;50650;48.180;11.524;2023-04-26T08:57:36;7.68;;;3.75;;
64313;SDS011;50650;48.180;11.524;2023-04-26T09:00:05;7.10;;;3.40;;
64313;SDS011;50650;48.180;11.524;2023-04-26T09:02:34;11.27;;;4.00;;
64313;SDS011;50650;48.180;11.524;2023-04-26T09:05:01;9.68;;;4.05;;
64313;SDS011;50650;48.180;11.524;2023-04-26T09:07:31;10.57;;;4.68;;
64313;SDS011;50650;48.180;11.524;2023-04-26T09:09:58;5.45;;;3.42;;
64313;SDS011;50650;48.180;11.524;2023-04-26T09:12:25;8.30;;;3.63;;
64313;SDS011;50650;48.180;11.524;2023-04-26T09:14:51;7.85;;;4.10;;
64313;SDS011;50650;48.180;11.524;2023-04-26T09:17:24;14.68;;;4.28;;
64313;SDS011;50650;48.180;11.524;2023-04-26T09:19:55;8.25;;;3.25;;
64313;SDS011;50650;48.180;11.524;2023-04-26T09:22:32;6.05;;;2.88;;
64313;SDS011;50650;48.180;11.524;2023-04-26T09:24:59;7.53;;;4.13;;
64313;SDS011;50650;48.180;11.524;2023-04-26T09:27:31;10.00;;;3.28;;
64313;SDS011;50650;48.180;11.524;2023-04-26T09:30:02;6.35;;;2.95;;
64313;SDS011;50650;48.180;11.524;2023-04-26T09:32:42;7.13;;;2.55;;
64313;SDS011;50650;48.180;11.524;2023-04-26T09:35:22;7.72;;;3.10;;
64313;SDS011;50650;48.180;11.524;2023-04-26T09:37:54;6.63;;;3.08;;
64313;SDS011;50650;48.180;11.524;2023-04-26T09:40:22;8.90;;;2.78;;
64313;SDS011;50650;48.180;11.524;2023-04-26T09:42:57;7.65;;;2.90;;
64313;SDS011;50650;48.180;11.524;2023-04-26T09:45:24;6.13;;;3.58;;
64313;SDS011;50650;48.180;11.524;2023-04-26T09:47:50;8.43;;;3.00;;
64313;SDS011;50650;48.180;11.524;2023-04-26T09:50:27;4.25;;;2.10;;
64313;SDS011;50650;48.180;11.524;2023-04-26T09:52:55;7.72;;;2.72;;
64313;SDS011;50650;48.180;11.524;2023-04-26T09:55:25;10.38;;;2.70;;
64313;SDS011;50650;48.180;11.524;2023-04-26T09:57:53;6.68;;;2.55;;
64313;SDS011;50650;48.180;11.524;2023-04-26T10:00:20;5.60;;;2.80;;
64313;SDS011;50650;48.180;11.524;2023-04-26T10:02:46;8.00;;;2.67;;
64313;SDS011;50650;48.180;11.524;2023-04-26T10:05:13;7.68;;;2.90;;
64313;SDS011;50650;48.180;11.524;2023-04-26T10:07:39;6.47;;;2.65;;
64313;SDS011;50650;48.180;11.524;2023-04-26T10:10:08;5.18;;;2.60;;
64313;SDS011;50650;48.180;11.524;2023-04-26T10:12:35;5.35;;;2.50;;
64313;SDS011;50650;48.180;11.524;2023-04-26T10:15:02;7.65;;;2.92;;
64313;SDS011;50650;48.180;11.524;2023-04-26T10:17:29;6.90;;;2.33;;
64313;SDS011;50650;48.180;11.524;2023-04-26T10:19:56;7.05;;;2.88;;
64313;SDS011;50650;48.180;11.524;2023-04-26T10:22:24;4.20;;;2.13;;
64313;SDS011;50650;48.180;11.524;2023-04-26T10:24:53;8.90;;;2.40;;
64313;SDS011;50650;48.180;11.524;2023-04-26T10:30:18;5.55;;;2.40;;
64313;SDS011;50650;48.180;11.524;2023-04-26T10:38:25;5.70;;;2.40;;
64313;SDS011;50650;48.180;11.524;2023-04-26T10:40:51;6.03;;;2.15;;
64313;SDS011;50650;48.180;11.524;2023-04-26T10:43:28;6.32;;;2.50;;
64313;SDS011;50650;48.180;11.524;2023-04-26T10:45:56;8.20;;;2.13;;
64313;SDS011;50650;48.180;11.524;2023-04-26T10:48:59;5.28;;;2.10;;
64313;SDS011;50650;48.180;11.524;2023-04-26T10:51:37;2.95;;;1.95;;
64313;SDS011;50650;48.180;11.524;2023-04-26T10:54:04;4.65;;;1.70;;
64313;SDS011;50650;48.180;11.524;2023-04-26T10:56:49;3.65;;;1.85;;
64313;SDS011;50650;48.180;11.524;2023-04-26T10:59:20;3.40;;;1.80;;
64313;SDS011;50650;48.180;11.524;2023-04-26T11:01:46;4.20;;;1.80;;
64313;SDS011;50650;48.180;11.524;2023-04-26T11:04:13;6.35;;;1.90;;
64313;SDS011;50650;48.180;11.524;2023-04-26T11:06:47;3.95;;;2.08;;
64313;SDS011;50650;48.180;11.524;2023-04-26T11:09:33;3.58;;;1.90;;
64313;SDS011;50650;48.180;11.524;2023-04-26T11:12:02;3.38;;;1.90;;
64313;SDS011;50650;48.180;11.524;2023-04-26T11:14:31;10.60;;;2.17;;
64313;SDS011;50650;48.180;11.524;2023-04-26T11:16:58;10.48;;;2.80;;
64313;SDS011;50650;48.180;11.524;2023-04-26T11:19:25;6.88;;;2.17;;
64313;SDS011;50650;48.180;11.524;2023-04-26T11:21:51;9.63;;;2.67;;
64313;SDS011;50650;48.180;11.524;2023-04-26T11:24:23;6.30;;;2.42;;
64313;SDS011;50650;48.180;11.524;2023-04-26T11:26:50;7.10;;;2.42;;
64313;SDS011;50650;48.180;11.524;2023-04-26T11:29:17;7.53;;;2.60;;
64313;SDS011;50650;48.180;11.524;2023-04-26T11:31:50;4.30;;;2.00;;
64313;SDS011;50650;48.180;11.524;2023-04-26T11:34:19;5.25;;;2.08;;
64313;SDS011;50650;48.180;11.524;2023-04-26T11:36:46;4.95;;;2.10;;
64313;SDS011;50650;48.180;11.524;2023-04-26T11:39:13;5.88;;;1.88;;
64313;SDS011;50650;48.180;11.524;2023-04-26T11:41:40;3.55;;;1.70;;
64313;SDS011;50650;48.180;11.524;2023-04-26T11:44:06;4.45;;;2.40;;
64313;SDS011;50650;48.180;11.524;2023-04-26T11:46:33;6.72;;;2.22;;
64313;SDS011;50650;48.180;11.524;2023-04-26T11:49:01;6.10;;;2.22;;
64313;SDS011;50650;48.180;11.524;2023-04-26T11:51:27;4.32;;;1.75;;
64313;SDS011;50650;48.180;11.524;2023-04-26T11:53:54;4.47;;;1.88;;
64313;SDS011;50650;48.180;11.524;2023-04-26T11:56:20;5.18;;;2.00;;
64313;SDS011;50650;48.180;11.524;2023-04-26T11:58:47;5.25;;;1.85;;
64313;SDS011;50650;48.180;11.524;2023-04-26T12:01:20;3.78;;;1.98;;
64313;SDS011;50650;48.180;11.524;2023-04-26T12:03:48;5.05;;;2.05;;
64313;SDS011;50650;48.180;11.524;2023-04-26T12:06:17;4.57;;;1.90;;
64313;SDS011;50650;48.180;11.524;2023-04-26T12:08:48;3.53;;;1.83;;
64313;SDS011;50650;48.180;11.524;2023-04-26T12:11:15;5.53;;;1.90;;
64313;SDS011;50650;48.180;11.524;2023-04-26T12:13:41;3.72;;;1.92;;
64313;SDS011;50650;48.180;11.524;2023-04-26T12:16:08;5.43;;;2.08;;
64313;SDS011;50650;48.180;11.524;2023-04-26T12:18:35;5.07;;;2.00;;
64313;SDS011;50650;48.180;11.524;2023-04-26T12:21:01;2.63;;;1.83;;
64313;SDS011;50650;48.180;11.524;2023-04-26T12:23:36;3.92;;;2.35;;
64313;SDS011;50650;48.180;11.524;2023-04-26T12:26:04;5.82;;;2.22;;
64313;SDS011;50650;48.180;11.524;2023-04-26T12:28:30;5.68;;;2.65;;
64313;SDS011;50650;48.180;11.524;2023-04-26T12:30:57;3.67;;;2.00;;
64313;SDS011;50650;48.180;11.524;2023-04-26T12:33:25;5.60;;;1.98;;
64313;SDS011;50650;48.180;11.524;2023-04-26T12:35:51;4.88;;;1.98;;
64313;SDS011;50650;48.180;11.524;2023-04-26T12:38:17;4.63;;;2.20;;
64313;SDS011;50650;48.180;11.524;2023-04-26T12:40:45;7.10;;;2.75;;
64313;SDS011;50650;48.180;11.524;2023-04-26T12:43:12;6.35;;;2.30;;
64313;SDS011;50650;48.180;11.524;2023-04-26T12:45:39;4.00;;;2.10;;
64313;SDS011;50650;48.180;11.524;2023-04-26T12:48:06;8.88;;;2.40;;
64313;SDS011;50650;48.180;11.524;2023-04-26T12:50:33;7.00;;;2.45;;
64313;SDS011;50650;48.180;11.524;2023-04-26T12:52:59;6.32;;;2.67;;
64313;SDS011;50650;48.180;11.524;2023-04-26T12:55:25;5.22;;;2.05;;
64313;SDS011;50650;48.180;11.524;2023-04-26T12:57:53;10.75;;;2.03;;
64313;SDS011;50650;48.180;11.524;2023-04-26T13:00:20;5.88;;;2.17;;
64313;SDS011;50650;48.180;11.524;2023-04-26T13:02:46;6.32;;;2.15;;
64313;SDS011;50650;48.180;11.524;2023-04-26T13:05:13;6.28;;;2.50;;
64313;SDS011;50650;48.180;11.524;2023-04-26T13:07:41;6.88;;;2.30;;
64313;SDS011;50650;48.180;11.524;2023-04-26T13:10:08;5.95;;;2.05;;
64313;SDS011;50650;48.180;11.524;2023-04-26T13:12:35;3.80;;;2.00;;
64313;SDS011;50650;48.180;11.524;2023-04-26T13:15:04;4.72;;;2.13;;
64313;SDS011;50650;48.180;11.524;2023-04-26T13:17:31;4.53;;;2.17;;
64313;SDS011;50650;48.180;11.524;2023-04-26T13:19:58;4.78;;;2.40;;
64313;SDS011;50650;48.180;11.524;2023-04-26T13:22:24;4.07;;;2.00;;
64313;SDS011;50650;48.180;11.524;2023-04-26T13:24:51;4.53;;;1.83;;
64313;SDS011;50650;48.180;11.524;2023-04-26T13:27:17;6.85;;;2.10;;
64313;SDS011;50650;48.180;11.524;2023-04-26T13:29:44;3.55;;;1.88;;
64313;SDS011;50650;48.180;11.524;2023-04-26T13:32:11;4.65;;;2.05;;
64313;SDS011;50650;48.180;11.524;2023-04-26T13:34:38;6.68;;;2.38;;
64313;SDS011;50650;48.180;11.524;2023-04-26T13:37:04;5.00;;;2.00;;
64313;SDS011;50650;48.180;11.524;2023-04-26T13:39:31;3.55;;;1.88;;
64313;SDS011;50650;48.180;11.524;2023-04-26T13:41:57;3.60;;;1.80;;
64313;SDS011;50650;48.180;11.524;2023-04-26T13:44:25;5.03;;;1.92;;
64313;SDS011;50650;48.180;11.524;2023-04-26T13:46:53;4.70;;;2.22;;
64313;SDS011;50650;48.180;11.524;2023-04-26T13:49:21;5.63;;;2.22;;
64313;SDS011;50650;48.180;11.524;2023-04-26T13:51:48;6.97;;;2.08;;
64313;SDS011;50650;48.180;11.524;2023-04-26T13:54:14;3.65;;;1.60;;
64313;SDS011;50650;48.180;11.524;2023-04-26T13:56:41;3.78;;;2.10;;
64313;SDS011;50650;48.180;11.524;2023-04-26T13:59:07;6.90;;;1.95;;
64313;SDS011;50650;48.180;11.524;2023-04-26T14:01:34;3.80;;;1.80;;
64313;SDS011;50650;48.180;11.524;2023-04-26T14:04:00;3.72;;;1.60;;
64313;SDS011;50650;48.180;11.524;2023-04-26T14:06:29;3.28;;;1.80;;
64313;SDS011;50650;48.180;11.524;2023-04-26T14:08:58;7.20;;;1.92;;
64313;SDS011;50650;48.180;11.524;2023-04-26T14:11:24;2.65;;;1.50;;
64313;SDS011;50650;48.180;11.524;2023-04-26T14:13:51;7.10;;;1.67;;
64313;SDS011;50650;48.180;11.524;2023-04-26T14:16:20;4.47;;;2.15;;
64313;SDS011;50650;48.180;11.524;2023-04-26T14:18:46;3.03;;;1.70;;
64313;SDS011;50650;48.180;11.524;2023-04-26T14:21:13;3.05;;;1.98;;
64313;SDS011;50650;48.180;11.524;2023-04-26T14:23:41;4.47;;;2.10;;
64313;SDS011;50650;48.180;11.524;2023-04-26T14:26:07;5.38;;;2.42;;
64313;SDS011;50650;48.180;11.524;2023-04-26T14:28:34;6.80;;;1.95;;
64313;SDS011;50650;48.180;11.524;2023-04-26T14:31:01;7.10;;;2.00;;
64313;SDS011;50650;48.180;11.524;2023-04-26T14:33:27;2.95;;;1.77;;
64313;SDS011;50650;48.180;11.524;2023-04-26T14:35:54;3.38;;;2.00;;
64313;SDS011;50650;48.180;11.524;2023-04-26T14:38:20;5.97;;;2.40;;
64313;SDS011;50650;48.180;11.524;2023-04-26T14:40:48;4.53;;;2.08;;